Aqualink II — WDF7372 — position and weather

sailwx.info

Track history (hours):
 
Tides and Currents Weather Stations Pressure Air Temp Water Temp Dewpoint Dewpoint Depression Visibility Wind Speed Wind Dir Waves Ship Positions

Aqualink II

Owner: Catalina Channel Express Inc, San Pedro, CA. More information available from US FCC via Universal Licensing System and Coast Guard Vessel Documentation Center.

Last reported at 2017-Oct-28 00:47 UTC. Time now 2017-Nov-23 18:49 UTC.
Position N 33°45' W 118°12'.
Warning: this ship's position is 26 days out of date.

Length 22 m.

Type: Ship. MMSI: 367483850.

Date/timePositionNaut miles runAvg speedWind from/ knotsBaromVisibWave heightAir tempDewpointWater temp
2017-Oct-28 00:47N 33°45' W 118°12'1 1.9
2017-Oct-28 00:30N 33°46' W 118°12'1 0.8
2017-Oct-27 23:49N 33°45' W 118°12'0 1.3
2017-Oct-27 23:30N 33°46' W 118°12'4 5.6
2017-Oct-27 22:48N 33°44' W 118°07'411.9
2017-Oct-27 22:29N 33°45' W 118°12'1 0.8
2017-Oct-27 21:52N 33°46' W 118°12'0 0.2
2017-Oct-27 21:30N 33°46' W 118°12'4 5.9
2017-Oct-27 20:49N 33°44' W 118°07'410.2
2017-Oct-27 20:28N 33°45' W 118°12'1 1.1
2017-Oct-27 20:00N 33°46' W 118°12'4 7.2
2017-Oct-27 19:27N 33°45' W 118°07'4 7.2
2017-Oct-27 18:55N 33°45' W 118°12'0 0.5
2017-Oct-27 18:28N 33°45' W 118°11'3 3.7
2017-Oct-27 17:42N 33°45' W 118°08'313.0
2017-Oct-27 17:29N 33°45' W 118°12'0 0.0
2017-Oct-27 16:59N 33°45' W 118°12'0 0.1
2017-Oct-27 08:19N 33°46' W 118°12'0 0.8
2017-Oct-27 07:43N 33°45' W 118°12'0 0.6
2017-Oct-27 07:22N 33°45' W 118°11'0 0.0
2017-Oct-27 01:15N 33°45' W 118°11'0 0.9
2017-Oct-27 00:48N 33°46' W 118°12'0 0.0
2017-Oct-26 01:15N 33°46' W 118°12'0 0.9
2017-Oct-26 00:47N 33°45' W 118°12'1 1.4
2017-Oct-26 00:24N 33°46' W 118°12'1 1.3
2017-Oct-25 23:55N 33°46' W 118°11'1 0.9
2017-Oct-25 23:19N 33°45' W 118°12'0 0.0
2017-Oct-25 22:31N 33°45' W 118°12'0 0.0
2017-Oct-25 22:25N 33°45' W 118°12'0 0.0
2017-Oct-25 21:55N 33°45' W 118°12'0 0.0
2017-Oct-25 20:37N 33°45' W 118°12'0 0.0
2017-Oct-25 20:25N 33°45' W 118°12'0 0.0
2017-Oct-25 19:55N 33°45' W 118°12'0 0.0
2017-Oct-25 19:25N 33°45' W 118°12'0 0.0
2017-Oct-25 18:52N 33°45' W 118°12'0 0.0
2017-Oct-25 18:22N 33°45' W 118°12'0 0.0
2017-Oct-25 17:58N 33°45' W 118°12'0 0.0
2017-Oct-25 17:22N 33°45' W 118°12'0 0.0
2017-Oct-23 18:07N 33°45' W 118°12'0 0.0
2017-Oct-23 17:55N 33°45' W 118°12'0 0.0
2017-Oct-23 17:25N 33°45' W 118°12'0 0.0
2017-Oct-22 23:34N 33°46' W 118°12'2 2.2
2017-Oct-22 22:35N 33°44' W 118°10'215.9
2017-Oct-22 22:29N 33°45' W 118°11'1 0.9
2017-Oct-22 21:51N 33°46' W 118°12'0 0.0
2017-Oct-22 21:28N 33°46' W 118°12'2 2.5
2017-Oct-22 20:37N 33°44' W 118°10'2 2.2
2017-Oct-22 19:51N 33°45' W 118°11'4 1.9
2017-Oct-22 17:54N 33°44' W 118°07'4 0.2
2017-Oct-21 18:37N 33°46' W 118°12'410.9
2017-Oct-21 18:15N 33°44' W 118°07'0 0.2
2017-Oct-21 17:52N 33°44' W 118°07'4 9.0
2017-Oct-21 17:28N 33°45' W 118°12'0 0.0
2017-Oct-20 19:57N 33°46' W 118°12'0 0.0
2017-Oct-20 18:31N 33°46' W 118°12'1 6.7
2017-Oct-20 18:25N 33°45' W 118°11'  
Track history (hours):
 
Tides and Currents Weather Stations Pressure Air Temp Water Temp Dewpoint Dewpoint Depression Visibility Wind Speed Wind Dir Waves Ship Positions

Aqualink II

Owner: Catalina Channel Express Inc, San Pedro, CA. More information available from US FCC via Universal Licensing System and Coast Guard Vessel Documentation Center.

Last reported at 2017-Oct-28 00:47 UTC. Time now 2017-Nov-23 18:49 UTC.
Position N 33°45' W 118°12'.
Warning: this ship's position is 26 days out of date.

Length 22 m.

Type: Ship. MMSI: 367483850.

Date/timePositionNaut miles runAvg speedWind from/ knotsBaromVisibWave heightAir tempDewpointWater temp
2017-Oct-28 00:47N 33°45' W 118°12'1 1.9
2017-Oct-28 00:30N 33°46' W 118°12'1 0.8
2017-Oct-27 23:49N 33°45' W 118°12'0 1.3
2017-Oct-27 23:30N 33°46' W 118°12'4 5.6
2017-Oct-27 22:48N 33°44' W 118°07'411.9
2017-Oct-27 22:29N 33°45' W 118°12'1 0.8
2017-Oct-27 21:52N 33°46' W 118°12'0 0.2
2017-Oct-27 21:30N 33°46' W 118°12'4 5.9
2017-Oct-27 20:49N 33°44' W 118°07'410.2
2017-Oct-27 20:28N 33°45' W 118°12'1 1.1
2017-Oct-27 20:00N 33°46' W 118°12'4 7.2
2017-Oct-27 19:27N 33°45' W 118°07'4 7.2
2017-Oct-27 18:55N 33°45' W 118°12'0 0.5
2017-Oct-27 18:28N 33°45' W 118°11'3 3.7
2017-Oct-27 17:42N 33°45' W 118°08'313.0
2017-Oct-27 17:29N 33°45' W 118°12'0 0.0
2017-Oct-27 16:59N 33°45' W 118°12'0 0.1
2017-Oct-27 08:19N 33°46' W 118°12'0 0.8
2017-Oct-27 07:43N 33°45' W 118°12'0 0.6
2017-Oct-27 07:22N 33°45' W 118°11'0 0.0
2017-Oct-27 01:15N 33°45' W 118°11'0 0.9
2017-Oct-27 00:48N 33°46' W 118°12'0 0.0
2017-Oct-26 01:15N 33°46' W 118°12'0 0.9
2017-Oct-26 00:47N 33°45' W 118°12'1 1.4
2017-Oct-26 00:24N 33°46' W 118°12'1 1.3
2017-Oct-25 23:55N 33°46' W 118°11'1 0.9
2017-Oct-25 23:19N 33°45' W 118°12'0 0.0
2017-Oct-25 22:31N 33°45' W 118°12'0 0.0
2017-Oct-25 22:25N 33°45' W 118°12'0 0.0
2017-Oct-25 21:55N 33°45' W 118°12'0 0.0
2017-Oct-25 20:37N 33°45' W 118°12'0 0.0
2017-Oct-25 20:25N 33°45' W 118°12'0 0.0
2017-Oct-25 19:55N 33°45' W 118°12'0 0.0
2017-Oct-25 19:25N 33°45' W 118°12'0 0.0
2017-Oct-25 18:52N 33°45' W 118°12'0 0.0
2017-Oct-25 18:22N 33°45' W 118°12'0 0.0
2017-Oct-25 17:58N 33°45' W 118°12'0 0.0
2017-Oct-25 17:22N 33°45' W 118°12'0 0.0
2017-Oct-23 18:07N 33°45' W 118°12'0 0.0
2017-Oct-23 17:55N 33°45' W 118°12'0 0.0
2017-Oct-23 17:25N 33°45' W 118°12'0 0.0
2017-Oct-22 23:34N 33°46' W 118°12'2 2.2
2017-Oct-22 22:35N 33°44' W 118°10'215.9
2017-Oct-22 22:29N 33°45' W 118°11'1 0.9
2017-Oct-22 21:51N 33°46' W 118°12'0 0.0
2017-Oct-22 21:28N 33°46' W 118°12'2 2.5
2017-Oct-22 20:37N 33°44' W 118°10'2 2.2
2017-Oct-22 19:51N 33°45' W 118°11'4 1.9
2017-Oct-22 17:54N 33°44' W 118°07'4 0.2
2017-Oct-21 18:37N 33°46' W 118°12'410.9
2017-Oct-21 18:15N 33°44' W 118°07'0 0.2
2017-Oct-21 17:52N 33°44' W 118°07'4 9.0
2017-Oct-21 17:28N 33°45' W 118°12'0 0.0
2017-Oct-20 19:57N 33°46' W 118°12'0 0.0
2017-Oct-20 18:31N 33°46' W 118°12'1 6.7
2017-Oct-20 18:25N 33°45' W 118°11'  

Dump ship's entire track history